PUA253 EIKN-BIKF
Flight info
| Callsign | PUA253 |
|---|---|
| Flight time | N/A |
| Altitude | 40000 |
| Route | KUDAG DCT IBROD/N0484F390 DCT GOMUP/M085F400 DCT BREKI DCT BASLU BASLU3K |
| Aircraft | MD11/H-SDE1E2E3FGHIJ2J3J4J5M1RWXY/LB1D1 |
Departure
| Time | 2026-04-26 22:31 |
|---|---|
| Airport | Ireland West Airport Knock (EIKN) |
Arrival
| Time | N/A |
|---|---|
| Airport | Keflavik International Airport (BIKF) |
| Time | Latitude | Longitude | Altitude | Speed | Heading |
|---|---|---|---|---|---|
| 2026-04-26 22:19 | 53.91405 | -8.80951 | 666 ft | 0 kts | 193° |
| 2026-04-26 22:24 | 53.91398 | -8.80951 | 670 ft | 2 kts | 184° |
| 2026-04-26 22:24 | 53.91384 | -8.80946 | 670 ft | 2 kts | 165° |
| 2026-04-26 22:25 | 53.91366 | -8.80936 | 668 ft | 3 kts | 163° |
| 2026-04-26 22:25 | 53.91340 | -8.80923 | 668 ft | 4 kts | 163° |
| 2026-04-26 22:25 | 53.91307 | -8.80908 | 669 ft | 5 kts | 166° |
| 2026-04-26 22:25 | 53.91266 | -8.80892 | 669 ft | 6 kts | 167° |
| 2026-04-26 22:26 | 53.91221 | -8.80877 | 669 ft | 7 kts | 169° |
| 2026-04-26 22:26 | 53.91185 | -8.80853 | 671 ft | 4 kts | 146° |
| 2026-04-26 22:26 | 53.91174 | -8.80830 | 672 ft | 2 kts | 124° |
| 2026-04-26 22:26 | 53.91166 | -8.80774 | 673 ft | 8 kts | 98° |
| 2026-04-26 22:27 | 53.91166 | -8.80682 | 675 ft | 7 kts | 85° |
| 2026-04-26 22:27 | 53.91171 | -8.80607 | 676 ft | 6 kts | 81° |
| 2026-04-26 22:27 | 53.91176 | -8.80547 | 677 ft | 5 kts | 81° |
| 2026-04-26 22:27 | 53.91182 | -8.80501 | 678 ft | 3 kts | 77° |
| 2026-04-26 22:28 | 53.91189 | -8.80450 | 679 ft | 6 kts | 77° |
| 2026-04-26 22:28 | 53.91199 | -8.80386 | 680 ft | 5 kts | 76° |
| 2026-04-26 22:28 | 53.91207 | -8.80324 | 681 ft | 7 kts | 77° |
| 2026-04-26 22:28 | 53.91217 | -8.80247 | 680 ft | 7 kts | 80° |
| 2026-04-26 22:29 | 53.91217 | -8.80163 | 681 ft | 8 kts | 94° |
| 2026-04-26 22:29 | 53.91220 | -8.80115 | 683 ft | 1 kts | 66° |
| 2026-04-26 22:29 | 53.91224 | -8.80111 | 683 ft | 1 kts | 40° |
| 2026-04-26 22:29 | 53.91233 | -8.80114 | 681 ft | 1 kts | 354° |
| 2026-04-26 22:30 | 53.91237 | -8.80129 | 680 ft | 1 kts | 299° |
| 2026-04-26 22:30 | 53.91233 | -8.80169 | 679 ft | 10 kts | 259° |
| 2026-04-26 22:30 | 53.91147 | -8.80869 | 670 ft | 116 kts | 258° |
| 2026-04-26 22:30 | 53.90928 | -8.82666 | 966 ft | 172 kts | 257° |
| 2026-04-26 22:31 | 53.90443 | -8.84561 | 2159 ft | 185 kts | 236° |
| 2026-04-26 22:31 | 53.89535 | -8.86043 | 3361 ft | 175 kts | 210° |
| 2026-04-26 22:31 | 53.88406 | -8.86622 | 4544 ft | 170 kts | 181° |
| 2026-04-26 22:31 | 53.87285 | -8.86147 | 5577 ft | 171 kts | 150° |
| 2026-04-26 22:32 | 53.86551 | -8.84752 | 6209 ft | 166 kts | 116° |
| 2026-04-26 22:32 | 53.86393 | -8.82555 | 6597 ft | 206 kts | 83° |
| 2026-04-26 22:32 | 53.86947 | -8.80249 | 7367 ft | 219 kts | 55° |
| 2026-04-26 22:32 | 53.88117 | -8.78489 | 8166 ft | 235 kts | 28° |
| 2026-04-26 22:33 | 53.89714 | -8.77676 | 9045 ft | 246 kts | 2° |
| 2026-04-26 22:33 | 53.92840 | -8.79605 | 10959 ft | 243 kts | 310° |
| 2026-04-26 22:33 | 53.93724 | -8.81981 | 11886 ft | 236 kts | 284° |
| 2026-04-26 22:34 | 53.93884 | -8.84689 | 12814 ft | 229 kts | 258° |
| 2026-04-26 22:34 | 53.93298 | -8.87145 | 13738 ft | 225 kts | 232° |
| 2026-04-26 22:34 | 53.92117 | -8.88795 | 14556 ft | 226 kts | 206° |
| 2026-04-26 22:34 | 53.90587 | -8.89301 | 15283 ft | 231 kts | 179° |
| 2026-04-26 22:35 | 53.89025 | -8.88524 | 16034 ft | 238 kts | 153° |
| 2026-04-26 22:35 | 53.87781 | -8.86598 | 16791 ft | 251 kts | 128° |
| 2026-04-26 22:35 | 53.87086 | -8.83839 | 17591 ft | 261 kts | 103° |
| 2026-04-26 22:35 | 53.87077 | -8.80737 | 18423 ft | 268 kts | 80° |
| 2026-04-26 22:36 | 53.87750 | -8.77789 | 19159 ft | 271 kts | 59° |
| 2026-04-26 22:36 | 53.88789 | -8.74946 | 19366 ft | 298 kts | 58° |
| 2026-04-26 22:36 | 53.89927 | -8.71796 | 19497 ft | 327 kts | 59° |
| 2026-04-26 22:36 | 53.91127 | -8.68311 | 19635 ft | 356 kts | 62° |
| 2026-04-26 22:37 | 53.92233 | -8.64389 | 19787 ft | 381 kts | 68° |
| 2026-04-26 22:37 | 53.93179 | -8.60027 | 19913 ft | 404 kts | 73° |
| 2026-04-26 22:37 | 53.93980 | -8.55319 | 20060 ft | 425 kts | 76° |
| 2026-04-26 22:37 | 53.94665 | -8.50434 | 20613 ft | 432 kts | 78° |
| 2026-04-26 22:38 | 53.95289 | -8.45415 | 21306 ft | 436 kts | 79° |
| 2026-04-26 22:38 | 53.95881 | -8.40336 | 21950 ft | 441 kts | 80° |
| 2026-04-26 22:38 | 53.96465 | -8.35182 | 22610 ft | 446 kts | 80° |
| 2026-04-26 22:38 | 53.97049 | -8.29977 | 23255 ft | 451 kts | 80° |
| 2026-04-26 22:39 | 53.97638 | -8.24714 | 23895 ft | 456 kts | 80° |
| 2026-04-26 22:39 | 53.98244 | -8.19395 | 24406 ft | 461 kts | 78° |
| 2026-04-26 22:39 | 53.99173 | -8.14149 | 24905 ft | 466 kts | 66° |
| 2026-04-26 22:39 | 54.00801 | -8.09387 | 25459 ft | 469 kts | 51° |
| 2026-04-26 22:40 | 54.03084 | -8.05409 | 25962 ft | 472 kts | 36° |
| 2026-04-26 22:40 | 54.05868 | -8.02472 | 26467 ft | 472 kts | 22° |
| 2026-04-26 22:40 | 54.08980 | -8.00741 | 26981 ft | 471 kts | 7° |
| 2026-04-26 22:40 | 54.12191 | -8.00294 | 27492 ft | 468 kts | 353° |
| 2026-04-26 22:41 | 54.15395 | -8.01090 | 28003 ft | 465 kts | 340° |
| 2026-04-26 22:41 | 54.18391 | -8.03072 | 28515 ft | 460 kts | 327° |
| 2026-04-26 22:41 | 54.21043 | -8.06068 | 29010 ft | 457 kts | 317° |
| 2026-04-26 22:41 | 54.23463 | -8.09598 | 29537 ft | 457 kts | 313° |
| 2026-04-26 22:42 | 54.25017 | -8.12050 | 29899 ft | 458 kts | 312° |
| 2026-04-26 22:42 | 54.27358 | -8.15779 | 30395 ft | 462 kts | 313° |
| 2026-04-26 22:42 | 54.29875 | -8.19273 | 30812 ft | 470 kts | 319° |
| 2026-04-26 22:42 | 54.32634 | -8.22370 | 31215 ft | 476 kts | 324° |
| 2026-04-26 22:43 | 54.35557 | -8.25088 | 31714 ft | 479 kts | 328° |
| 2026-04-26 22:43 | 54.38567 | -8.27557 | 32236 ft | 480 kts | 330° |
| 2026-04-26 22:43 | 54.41610 | -8.29899 | 32725 ft | 480 kts | 331° |
| 2026-04-26 22:43 | 54.44670 | -8.32205 | 33224 ft | 479 kts | 332° |
| 2026-04-26 22:44 | 54.47727 | -8.34512 | 33715 ft | 479 kts | 331° |
| 2026-04-26 22:44 | 54.50773 | -8.36832 | 34170 ft | 478 kts | 331° |
| 2026-04-26 22:44 | 54.53812 | -8.39169 | 34541 ft | 478 kts | 331° |
| 2026-04-26 22:44 | 54.56851 | -8.41523 | 34906 ft | 478 kts | 331° |
| 2026-04-26 22:45 | 54.59839 | -8.43849 | 35252 ft | 478 kts | 331° |
| 2026-04-26 22:45 | 54.62866 | -8.46212 | 35582 ft | 478 kts | 331° |
| 2026-04-26 22:45 | 54.65934 | -8.48611 | 35936 ft | 478 kts | 331° |
| 2026-04-26 22:45 | 54.68920 | -8.50950 | 36255 ft | 478 kts | 331° |
| 2026-04-26 22:46 | 54.71945 | -8.53322 | 36608 ft | 478 kts | 332° |
| 2026-04-26 22:46 | 54.74979 | -8.55705 | 36915 ft | 478 kts | 332° |
| 2026-04-26 22:46 | 54.78004 | -8.58084 | 37240 ft | 477 kts | 332° |
| 2026-04-26 22:46 | 54.81028 | -8.60466 | 37536 ft | 477 kts | 332° |
| 2026-04-26 22:47 | 54.84051 | -8.62852 | 37838 ft | 477 kts | 332° |
| 2026-04-26 22:47 | 54.87068 | -8.65241 | 38120 ft | 477 kts | 332° |
| 2026-04-26 22:47 | 54.90086 | -8.67651 | 38410 ft | 477 kts | 332° |
| 2026-04-26 22:47 | 54.93092 | -8.70058 | 38698 ft | 477 kts | 332° |
| 2026-04-26 22:48 | 54.96111 | -8.72472 | 38955 ft | 476 kts | 332° |
| 2026-04-26 22:48 | 54.99122 | -8.74877 | 39170 ft | 476 kts | 332° |
| 2026-04-26 22:48 | 55.02128 | -8.77276 | 39392 ft | 476 kts | 332° |
| 2026-04-26 22:48 | 55.05143 | -8.79685 | 39561 ft | 476 kts | 332° |
| 2026-04-26 22:49 | 55.08118 | -8.82063 | 39747 ft | 476 kts | 332° |
| 2026-04-26 22:49 | 55.11171 | -8.84508 | 39939 ft | 476 kts | 332° |
| 2026-04-26 22:49 | 55.14138 | -8.86888 | 40136 ft | 476 kts | 332° |
| 2026-04-26 22:50 | 55.20195 | -8.91761 | 40244 ft | 481 kts | 332° |
| 2026-04-26 22:50 | 55.26302 | -8.96692 | 40224 ft | 483 kts | 332° |
| 2026-04-26 22:51 | 55.32383 | -9.01612 | 40225 ft | 481 kts | 332° |
| 2026-04-26 22:51 | 55.38468 | -9.06556 | 40219 ft | 481 kts | 332° |
| 2026-04-26 22:52 | 55.44538 | -9.11505 | 40230 ft | 481 kts | 332° |
| 2026-04-26 22:52 | 55.50604 | -9.16468 | 40218 ft | 481 kts | 331° |
| 2026-04-26 22:53 | 55.56638 | -9.21421 | 40209 ft | 481 kts | 331° |
| 2026-04-26 22:53 | 55.62736 | -9.26458 | 40212 ft | 480 kts | 331° |
| 2026-04-26 22:54 | 55.68748 | -9.31474 | 40211 ft | 480 kts | 331° |
| 2026-04-26 22:54 | 55.74798 | -9.36512 | 40211 ft | 481 kts | 331° |
| 2026-04-26 22:55 | 55.80857 | -9.41557 | 40210 ft | 481 kts | 331° |
| 2026-04-26 22:55 | 55.86913 | -9.46613 | 40211 ft | 480 kts | 331° |
| 2026-04-26 22:56 | 55.92967 | -9.51685 | 40214 ft | 480 kts | 331° |
| 2026-04-26 22:56 | 55.99012 | -9.56768 | 40211 ft | 480 kts | 331° |
| 2026-04-26 22:57 | 56.05028 | -9.61844 | 40209 ft | 480 kts | 330° |
| 2026-04-26 22:57 | 56.11072 | -9.66963 | 40196 ft | 480 kts | 330° |
| 2026-04-26 22:58 | 56.17111 | -9.72094 | 40190 ft | 480 kts | 330° |
| 2026-04-26 22:58 | 56.23130 | -9.77226 | 40203 ft | 481 kts | 330° |
| 2026-04-26 22:59 | 56.29149 | -9.82379 | 40195 ft | 482 kts | 330° |
| 2026-04-26 22:59 | 56.35194 | -9.87569 | 40198 ft | 481 kts | 330° |
| 2026-04-26 23:00 | 56.41235 | -9.92818 | 40199 ft | 481 kts | 330° |
| 2026-04-26 23:00 | 56.47284 | -9.98025 | 40200 ft | 483 kts | 333° |
| 2026-04-26 23:01 | 56.53776 | -10.01160 | 40192 ft | 492 kts | 351° |
| 2026-04-26 23:01 | 56.60671 | -10.01067 | 40191 ft | 498 kts | 0° |
| 2026-04-26 23:02 | 56.67595 | -10.00319 | 40184 ft | 498 kts | 359° |
| 2026-04-26 23:02 | 56.74516 | -10.00033 | 40193 ft | 497 kts | 357° |
| 2026-04-26 23:03 | 56.81444 | -10.00009 | 40185 ft | 497 kts | 356° |
| 2026-04-26 23:03 | 56.88374 | -10.00027 | 40175 ft | 497 kts | 356° |
| 2026-04-26 23:04 | 56.95277 | -10.00095 | 40179 ft | 495 kts | 354° |
| 2026-04-26 23:04 | 57.01984 | -10.02203 | 40183 ft | 485 kts | 336° |
| 2026-04-26 23:05 | 57.07874 | -10.07857 | 40175 ft | 474 kts | 319° |
| 2026-04-26 23:05 | 57.12890 | -10.15600 | 40175 ft | 474 kts | 315° |
| 2026-04-26 23:06 | 57.17951 | -10.23400 | 40180 ft | 475 kts | 317° |
| 2026-04-26 23:06 | 57.23176 | -10.30913 | 40185 ft | 476 kts | 319° |
| 2026-04-26 23:07 | 57.28456 | -10.38324 | 40163 ft | 477 kts | 319° |
| 2026-04-26 23:07 | 57.33742 | -10.45751 | 40164 ft | 477 kts | 319° |
| 2026-04-26 23:08 | 57.39017 | -10.53209 | 40162 ft | 477 kts | 319° |
| 2026-04-26 23:08 | 57.44292 | -10.60703 | 40154 ft | 477 kts | 319° |
| 2026-04-26 23:09 | 57.49555 | -10.68212 | 40163 ft | 477 kts | 319° |
| 2026-04-26 23:09 | 57.54796 | -10.75715 | 40155 ft | 477 kts | 319° |
| 2026-04-26 23:10 | 57.60057 | -10.83274 | 40150 ft | 477 kts | 319° |
| 2026-04-26 23:10 | 57.65313 | -10.90853 | 40151 ft | 477 kts | 318° |
| 2026-04-26 23:11 | 57.70571 | -10.98467 | 40145 ft | 478 kts | 318° |
| 2026-04-26 23:11 | 57.75786 | -11.06125 | 40144 ft | 479 kts | 318° |
| 2026-04-26 23:12 | 57.81033 | -11.13843 | 40135 ft | 479 kts | 318° |
| 2026-04-26 23:12 | 57.86288 | -11.21553 | 40136 ft | 479 kts | 318° |
| 2026-04-26 23:13 | 57.91542 | -11.29275 | 40128 ft | 479 kts | 318° |
| 2026-04-26 23:13 | 57.96800 | -11.37030 | 40128 ft | 479 kts | 318° |
| 2026-04-26 23:14 | 58.02048 | -11.44803 | 40128 ft | 480 kts | 318° |
| 2026-04-26 23:14 | 58.07273 | -11.52572 | 40124 ft | 480 kts | 318° |
| 2026-04-26 23:15 | 58.12515 | -11.60395 | 40124 ft | 480 kts | 318° |
| 2026-04-26 23:15 | 58.17751 | -11.68240 | 40119 ft | 480 kts | 318° |